createdAt,value
2019-04-16T00:01:03.172Z,97644.04
2019-04-16T00:04:29.753Z,97649.95
2019-04-16T00:07:53.675Z,97637.16
2019-04-16T00:11:04.297Z,97633.89
2019-04-16T00:14:18.768Z,97626.27
2019-04-16T00:17:25.140Z,97625.33
2019-04-16T00:20:36.685Z,97623.80
2019-04-16T00:24:19.484Z,97618.73
2019-04-16T00:27:28.351Z,97609.89
2019-04-16T00:30:35.789Z,97605.98
2019-04-16T00:33:42.657Z,97601.78
2019-04-16T00:36:49.950Z,97595.47
2019-04-16T00:39:56.987Z,97590.81
2019-04-16T00:43:03.747Z,97584.19
2019-04-16T00:46:11.613Z,97587.55
2019-04-16T00:49:21.133Z,97583.75
2019-04-16T00:52:27.494Z,97582.88
2019-04-16T00:55:34.093Z,97576.13
2019-04-16T00:58:40.460Z,97582.49
2019-04-16T01:01:46.814Z,97581.23
2019-04-16T01:04:54.337Z,97582.94
2019-04-16T01:08:00.762Z,97580.75
2019-04-16T01:11:07.150Z,97575.30
2019-04-16T01:14:14.686Z,97579.45
2019-04-16T01:17:21.222Z,97576.52
2019-04-16T01:20:27.752Z,97577.36
2019-04-16T01:23:34.619Z,97582.94
2019-04-16T01:26:41.019Z,97582.11
2019-04-16T01:29:48.388Z,97587.56
2019-04-16T01:33:01.870Z,97580.42
2019-04-16T01:36:20.328Z,97586.31
2019-04-16T01:39:28.139Z,97581.66
2019-04-16T01:42:34.502Z,97578.31
2019-04-16T01:45:40.907Z,97579.98
2019-04-16T01:48:47.327Z,97574.92
2019-04-16T01:51:53.681Z,97580.39
2019-04-16T01:55:00.499Z,97583.33
2019-04-16T01:58:07.973Z,97579.54
2019-04-16T02:01:14.443Z,97585.44
2019-04-16T02:04:20.810Z,97578.27
2019-04-16T02:07:28.053Z,97581.25
2019-04-16T02:10:38.358Z,97577.87
2019-04-16T02:13:46.143Z,97579.14
2019-04-16T02:16:55.765Z,97586.73
2019-04-16T02:20:01.985Z,97582.49
2019-04-16T02:23:08.716Z,97576.19
2019-04-16T02:26:20.648Z,97580.81
2019-04-16T02:29:29.788Z,97582.52
2019-04-16T02:32:35.320Z,97587.58
2019-04-16T02:35:41.692Z,97587.17
2019-04-16T02:38:53.202Z,97583.38
2019-04-16T02:41:58.132Z,97579.16
2019-04-16T02:45:04.580Z,97583.38
2019-04-16T02:48:17.416Z,97579.58
2019-04-16T02:51:36.499Z,97574.52
2019-04-16T02:54:45.461Z,97575.34
2019-04-16T02:58:00.067Z,97580.84
2019-04-16T03:01:27.393Z,97584.64
2019-04-16T03:04:38.796Z,97583.34
2019-04-16T03:07:47.209Z,97579.58
2019-04-16T03:10:53.764Z,97574.52
2019-04-16T03:14:00.208Z,97569.45
2019-04-16T03:17:34.739Z,97572.38
2019-04-16T03:20:41.109Z,97574.05
2019-04-16T03:23:47.511Z,97572.28
2019-04-16T03:26:53.871Z,97573.58
2019-04-16T03:30:03.495Z,97575.68
2019-04-16T03:33:13.291Z,97576.13
2019-04-16T03:36:16.847Z,97578.48
2019-04-16T03:39:23.248Z,97576.76
2019-04-16T03:42:29.627Z,97574.17
2019-04-16T03:45:37.487Z,97581.11
2019-04-16T03:48:44.081Z,97581.05
2019-04-16T03:51:50.680Z,97582.34
2019-04-16T03:54:57.132Z,97585.78
2019-04-16T03:58:06.059Z,97587.11
2019-04-16T04:01:16.934Z,97585.32
2019-04-16T04:04:23.288Z,97590.23
2019-04-16T04:07:29.685Z,97586.80
2019-04-16T04:10:37.063Z,97580.16
2019-04-16T04:13:49.255Z,97584.23
2019-04-16T04:16:52.396Z,97594.60
2019-04-16T04:19:58.761Z,97593.70
2019-04-16T04:23:05.130Z,97596.80
2019-04-16T04:26:15.980Z,97601.89
2019-04-16T04:29:24.761Z,97595.15
2019-04-16T04:32:32.491Z,97595.62
2019-04-16T04:35:38.555Z,97603.23
2019-04-16T04:38:44.948Z,97612.59
2019-04-16T04:41:52.694Z,97611.19
2019-04-16T04:44:59.625Z,97610.55
2019-04-16T04:48:06.138Z,97613.95
2019-04-16T04:51:18.647Z,97612.83
2019-04-16T04:54:25.036Z,97611.00
2019-04-16T04:57:31.957Z,97608.27
2019-04-16T05:00:40.433Z,97605.41
2019-04-16T05:04:04.167Z,97604.25
2019-04-16T05:07:12.147Z,97606.73
2019-04-16T05:10:18.938Z,97607.50
2019-04-16T05:13:25.445Z,97608.03
2019-04-16T05:16:34.455Z,97606.37
2019-04-16T05:19:39.886Z,97606.72
2019-04-16T05:22:46.247Z,97606.68
2019-04-16T05:25:52.838Z,97607.09
2019-04-16T05:29:16.130Z,97610.75
2019-04-16T05:32:19.896Z,97610.06
2019-04-16T05:35:26.299Z,97611.83
2019-04-16T05:38:32.665Z,97612.79
2019-04-16T05:41:39.273Z,97617.05
2019-04-16T05:44:46.994Z,97614.95
2019-04-16T05:47:53.368Z,97614.91
2019-04-16T05:51:00.631Z,97621.62
2019-04-16T05:54:16.151Z,97620.14
2019-04-16T05:57:27.445Z,97620.12
2019-04-16T06:00:42.423Z,97622.50
2019-04-16T06:03:52.843Z,97621.53
2019-04-16T06:06:57.143Z,97618.45
2019-04-16T06:10:06.788Z,97619.14
2019-04-16T06:13:27.812Z,97616.81
2019-04-16T06:16:53.366Z,97617.09
2019-04-16T06:20:20.709Z,97618.19
2019-04-16T06:23:35.940Z,97623.02
2019-04-16T06:26:59.969Z,97625.75
2019-04-16T06:30:20.071Z,97621.88
2019-04-16T06:33:33.188Z,97624.80
2019-04-16T06:36:49.445Z,97622.85
2019-04-16T06:40:31.666Z,97613.34
2019-04-16T06:43:38.459Z,97616.23
2019-04-16T06:46:59.357Z,97614.40
2019-04-16T06:50:31.298Z,97612.94
2019-04-16T06:53:48.225Z,97614.20
2019-04-16T06:57:12.825Z,97614.81
2019-04-16T07:00:44.390Z,97624.75
2019-04-16T07:04:02.861Z,97621.45
2019-04-16T07:07:39.675Z,97619.19
2019-04-16T07:10:50.006Z,97617.98
2019-04-16T07:13:56.429Z,97617.69
2019-04-16T07:17:04.779Z,97614.22
2019-04-16T07:20:16.746Z,97615.36
2019-04-16T07:23:24.780Z,97611.31
2019-04-16T07:26:31.669Z,97608.25
2019-04-16T07:29:55.368Z,97612.45
2019-04-16T07:33:24.064Z,97611.20
2019-04-16T07:36:36.751Z,97608.44
2019-04-16T07:40:12.144Z,97604.58
2019-04-16T07:43:37.315Z,97611.85
2019-04-16T07:47:20.003Z,97608.75
2019-04-16T07:51:01.595Z,97610.97
2019-04-16T07:54:22.511Z,97615.82
2019-04-16T07:57:28.963Z,97615.05
2019-04-16T08:00:40.357Z,97620.56
2019-04-16T08:03:43.975Z,97618.17
2019-04-16T08:06:50.423Z,97617.25
2019-04-16T08:10:01.675Z,97615.54
2019-04-16T08:13:14.333Z,97611.67
2019-04-16T08:16:20.815Z,97609.17
2019-04-16T08:19:36.757Z,97606.47
2019-04-16T08:22:39.766Z,97607.39
2019-04-16T08:25:44.916Z,97601.08
2019-04-16T08:28:51.379Z,97600.50
2019-04-16T08:31:58.186Z,97602.66
2019-04-16T08:35:05.041Z,97600.40
2019-04-16T08:38:15.000Z,97609.46
2019-04-16T08:41:21.732Z,97610.42
2019-04-16T08:44:28.219Z,97610.80
2019-04-16T08:47:34.668Z,97607.14
2019-04-16T08:50:41.115Z,97601.71
2019-04-16T08:53:47.512Z,97602.36
2019-04-16T08:56:53.931Z,97607.52
2019-04-16T09:00:00.331Z,97606.11
2019-04-16T09:03:08.276Z,97614.24
2019-04-16T09:06:14.816Z,97605.08
2019-04-16T09:09:32.923Z,97612.70
2019-04-16T09:12:44.927Z,97617.81
2019-04-16T09:15:47.598Z,97611.04
2019-04-16T09:19:07.318Z,97617.81
2019-04-16T09:22:17.144Z,97615.98
2019-04-16T09:25:33.426Z,97619.14
2019-04-16T09:29:09.302Z,97616.81
2019-04-16T09:32:40.965Z,97613.47
2019-04-16T09:36:06.626Z,97611.01
2019-04-16T09:39:41.067Z,97617.30
2019-04-16T09:42:47.590Z,97618.72
2019-04-16T09:45:54.359Z,97613.27
2019-04-16T09:49:00.721Z,97612.58
2019-04-16T09:52:07.377Z,97605.66
2019-04-16T09:55:15.199Z,97602.42
2019-04-16T09:58:24.073Z,97607.81
2019-04-16T10:01:36.637Z,97604.11
2019-04-16T10:04:43.207Z,97604.84
2019-04-16T10:07:49.719Z,97605.92
2019-04-16T10:10:58.108Z,97603.94
2019-04-16T10:14:04.581Z,97598.97
2019-04-16T10:17:11.599Z,97602.78
2019-04-16T10:20:18.030Z,97602.58
2019-04-16T10:23:46.426Z,97605.93
2019-04-16T10:26:56.906Z,97600.19
2019-04-16T10:30:05.484Z,97598.12
2019-04-16T10:33:15.063Z,97595.02
2019-04-16T10:36:21.511Z,97587.88
2019-04-16T10:39:49.760Z,97587.73
2019-04-16T10:43:13.777Z,97592.05
2019-04-16T10:46:36.662Z,97592.97
2019-04-16T10:49:58.523Z,97594.55
2019-04-16T10:53:29.814Z,97586.52
2019-04-16T10:56:56.695Z,97587.13
2019-04-16T11:00:16.117Z,97589.94
2019-04-16T11:03:28.684Z,97585.14
2019-04-16T11:06:43.226Z,97578.09
2019-04-16T11:09:49.671Z,97582.61
2019-04-16T11:12:56.305Z,97582.81
2019-04-16T11:16:09.546Z,97582.85
2019-04-16T11:19:17.038Z,97581.22
2019-04-16T11:22:23.507Z,97571.88
2019-04-16T11:25:30.293Z,97581.05
2019-04-16T11:28:36.756Z,97580.38
2019-04-16T11:31:43.359Z,97579.68
2019-04-16T11:34:49.786Z,97577.56
2019-04-16T11:37:56.324Z,97587.36
2019-04-16T11:41:02.805Z,97585.54
2019-04-16T11:44:17.316Z,97565.27
2019-04-16T11:47:23.912Z,97585.05
2019-04-16T11:50:31.092Z,97582.09
2019-04-16T11:53:37.811Z,97585.37
2019-04-16T11:56:45.994Z,97585.02
2019-04-16T12:00:05.982Z,97584.59
2019-04-16T12:03:16.611Z,97582.03
2019-04-16T12:06:32.792Z,97588.58
2019-04-16T12:09:51.253Z,97575.42
2019-04-16T12:13:03.891Z,97578.76
2019-04-16T12:16:36.277Z,97580.61
2019-04-16T12:19:53.816Z,97583.00
2019-04-16T12:23:18.312Z,97581.01
2019-04-16T12:26:43.789Z,97581.58
2019-04-16T12:30:07.827Z,97576.28
2019-04-16T12:33:32.369Z,97579.20
2019-04-16T12:36:47.548Z,97581.56
2019-04-16T12:40:18.933Z,97578.75
2019-04-16T12:43:26.100Z,97571.89
2019-04-16T12:46:51.495Z,97576.73
2019-04-16T12:50:09.479Z,97578.83
2019-04-16T12:53:36.179Z,97563.66
2019-04-16T12:56:59.849Z,97570.99
2019-04-16T13:00:31.409Z,97564.21
2019-04-16T13:03:46.592Z,97565.22
2019-04-16T13:06:58.806Z,97575.12
2019-04-16T13:10:11.453Z,97569.19
2019-04-16T13:14:39.153Z,97577.52
2019-04-16T13:18:07.410Z,97571.53
2019-04-16T13:21:19.486Z,97562.95
2019-04-16T13:24:32.746Z,97559.86
2019-04-16T13:27:40.185Z,97553.87
2019-04-16T13:30:46.653Z,97550.86
2019-04-16T13:33:53.121Z,97549.95
2019-04-16T13:37:03.402Z,97544.65
2019-04-16T13:40:15.581Z,97546.13
2019-04-16T13:43:26.283Z,97554.01
2019-04-16T13:46:34.726Z,97562.75
2019-04-16T13:49:47.940Z,97555.61
2019-04-16T13:52:59.723Z,97548.67
2019-04-16T13:56:17.420Z,97556.72
2019-04-16T13:59:47.566Z,97555.66
2019-04-16T14:02:56.064Z,97554.89
2019-04-16T14:06:02.451Z,97556.81
2019-04-16T14:09:09.574Z,97560.39
2019-04-16T14:12:16.337Z,97559.16
2019-04-16T14:15:32.409Z,97558.59
2019-04-16T14:18:33.786Z,97560.02
2019-04-16T14:21:40.283Z,97557.56
2019-04-16T14:24:46.697Z,97559.73
2019-04-16T14:27:55.684Z,97559.13
2019-04-16T14:31:04.211Z,97553.84
2019-04-16T14:34:23.686Z,97557.13
2019-04-16T14:37:30.118Z,97555.72
2019-04-16T14:40:39.687Z,97561.41
2019-04-16T14:43:48.407Z,97551.99
2019-04-16T14:47:00.026Z,97555.46
2019-04-16T14:50:05.031Z,97557.78
2019-04-16T14:53:12.792Z,97560.06
2019-04-16T14:56:28.357Z,97560.97
2019-04-16T14:59:57.198Z,97561.23
2019-04-16T15:03:14.388Z,97571.63
2019-04-16T15:06:45.754Z,97566.05
2019-04-16T15:10:19.916Z,97565.20
2019-04-16T15:13:38.552Z,97571.11
2019-04-16T15:17:02.877Z,97568.87
2019-04-16T15:20:22.736Z,97566.91
2019-04-16T15:23:46.943Z,97572.31
2019-04-16T15:27:12.325Z,97569.24
2019-04-16T15:30:36.806Z,97570.97
2019-04-16T15:33:51.575Z,97575.67
2019-04-16T15:37:09.650Z,97571.64
2019-04-16T15:40:24.470Z,97574.23
2019-04-16T15:43:52.808Z,97579.48
2019-04-16T15:47:24.050Z,97577.99
2019-04-16T15:50:36.671Z,97575.75
2019-04-16T15:54:08.287Z,97574.42
2019-04-16T15:57:36.271Z,97578.84
2019-04-16T16:01:00.580Z,97579.77
2019-04-16T16:04:32.191Z,97576.11
2019-04-16T16:07:45.932Z,97579.61
2019-04-16T16:10:55.966Z,97579.41
2019-04-16T16:14:02.430Z,97586.14
2019-04-16T16:17:08.900Z,97586.78
2019-04-16T16:20:16.646Z,97586.49
2019-04-16T16:23:23.061Z,97592.44
2019-04-16T16:26:29.445Z,97594.17
2019-04-16T16:29:35.803Z,97598.38
2019-04-16T16:32:42.545Z,97594.95
2019-04-16T16:35:57.744Z,97597.78
2019-04-16T16:39:00.368Z,97600.70
2019-04-16T16:42:08.355Z,97602.80
2019-04-16T16:45:14.970Z,97606.15
2019-04-16T16:48:22.078Z,97611.81
2019-04-16T16:51:28.731Z,97615.09
2019-04-16T16:54:35.112Z,97619.19
2019-04-16T16:57:52.420Z,97614.38
2019-04-16T17:01:16.679Z,97616.47
2019-04-16T17:04:26.520Z,97617.89
2019-04-16T17:07:32.958Z,97626.95
2019-04-16T17:10:42.590Z,97625.53
2019-04-16T17:13:47.849Z,97624.82
2019-04-16T17:16:54.729Z,97621.02
2019-04-16T17:20:04.798Z,97624.86
2019-04-16T17:23:16.485Z,97633.63
2019-04-16T17:26:19.430Z,97626.41
2019-04-16T17:29:25.915Z,97628.67
2019-04-16T17:32:32.450Z,97628.92
2019-04-16T17:35:39.257Z,97632.56
2019-04-16T17:38:45.693Z,97634.26
2019-04-16T17:42:04.996Z,97637.41
2019-04-16T17:45:49.940Z,97638.20
2019-04-16T17:49:20.437Z,97642.88
2019-04-16T17:52:30.758Z,97645.16
2019-04-16T17:55:54.872Z,97651.52
2019-04-16T17:59:04.626Z,97660.87
2019-04-16T18:02:34.881Z,97657.81
2019-04-16T18:05:56.190Z,97664.05
2019-04-16T18:09:30.326Z,97669.27
2019-04-16T18:12:58.388Z,97667.79
2019-04-16T18:16:30.098Z,97678.27
2019-04-16T18:19:55.396Z,97674.09
2019-04-16T18:23:19.972Z,97682.53
2019-04-16T18:26:51.386Z,97680.77
2019-04-16T18:30:16.601Z,97679.77
2019-04-16T18:33:41.991Z,97688.16
2019-04-16T18:36:59.749Z,97687.18
2019-04-16T18:40:26.362Z,97687.23
2019-04-16T18:44:01.119Z,97691.30
2019-04-16T18:47:22.643Z,97691.00
2019-04-16T18:50:30.863Z,97702.97
2019-04-16T18:53:40.200Z,97712.02
2019-04-16T18:56:46.454Z,97714.25
2019-04-16T18:59:52.837Z,97715.50
2019-04-16T19:03:00.859Z,97720.05
2019-04-16T19:06:08.364Z,97723.80
2019-04-16T19:09:15.006Z,97732.02
2019-04-16T19:12:21.683Z,97734.22
2019-04-16T19:15:28.141Z,97737.56
2019-04-16T19:18:34.562Z,97744.63
2019-04-16T19:21:42.487Z,97739.04
2019-04-16T19:24:49.042Z,97743.45
2019-04-16T19:27:56.449Z,97744.33
2019-04-16T19:31:03.824Z,97740.44
2019-04-16T19:34:10.714Z,97748.95
2019-04-16T19:37:17.349Z,97752.72
2019-04-16T19:40:23.861Z,97743.19
2019-04-16T19:43:34.390Z,97757.53
2019-04-16T19:46:38.557Z,97756.40
2019-04-16T19:49:44.996Z,97757.25
2019-04-16T19:52:51.426Z,97750.06
2019-04-16T19:55:59.415Z,97756.20
2019-04-16T19:59:06.676Z,97759.28
2019-04-16T20:02:13.109Z,97763.05
2019-04-16T20:05:19.515Z,97767.90
2019-04-16T20:08:25.967Z,97767.13
2019-04-16T20:11:32.588Z,97768.54
2019-04-16T20:14:39.052Z,97777.09
2019-04-16T20:17:45.535Z,97777.39
2019-04-16T20:20:51.923Z,97771.00
2019-04-16T20:24:00.389Z,97778.61
2019-04-16T20:27:07.072Z,97774.52
2019-04-16T20:30:15.088Z,97778.96
2019-04-16T20:33:21.587Z,97777.36
2019-04-16T20:36:28.160Z,97777.69
2019-04-16T20:39:34.746Z,97781.63
2019-04-16T20:42:41.164Z,97785.52
2019-04-16T20:45:47.557Z,97792.83
2019-04-16T20:49:06.716Z,97797.73
2019-04-16T20:52:02.982Z,97799.05
2019-04-16T20:55:15.737Z,97803.58
2019-04-16T20:58:18.390Z,97802.69
2019-04-16T21:01:33.963Z,97797.34
2019-04-16T21:04:33.400Z,97802.07
2019-04-16T21:07:39.879Z,97801.17
2019-04-16T21:10:46.305Z,97802.41
2019-04-16T21:13:55.334Z,97806.37
2019-04-16T21:17:05.726Z,97809.79
2019-04-16T21:20:10.691Z,97807.52
2019-04-16T21:23:17.051Z,97812.34
2019-04-16T21:26:23.511Z,97820.36
2019-04-16T21:29:34.828Z,97820.02
2019-04-16T21:32:50.652Z,97828.00
2019-04-16T21:36:04.251Z,97828.55
2019-04-16T21:39:11.245Z,97829.88
2019-04-16T21:42:19.174Z,97828.36
2019-04-16T21:45:25.580Z,97828.39
2019-04-16T21:48:32.077Z,97823.56
2019-04-16T21:51:40.596Z,97828.49
2019-04-16T21:54:46.973Z,97833.89
2019-04-16T21:57:53.877Z,97829.72
2019-04-16T22:01:22.371Z,97835.23
2019-04-16T22:04:28.895Z,97827.91
2019-04-16T22:07:35.354Z,97827.88
2019-04-16T22:10:41.759Z,97832.66
2019-04-16T22:13:50.788Z,97828.49
2019-04-16T22:16:59.909Z,97832.02
2019-04-16T22:20:08.492Z,97831.63
2019-04-16T22:23:19.058Z,97829.53
2019-04-16T22:26:23.040Z,97823.95
2019-04-16T22:29:29.584Z,97820.66
2019-04-16T22:32:35.963Z,97823.48
2019-04-16T22:35:42.466Z,97825.58
2019-04-16T22:38:52.692Z,97825.64
2019-04-16T22:42:12.715Z,97824.24
2019-04-16T22:45:39.938Z,97827.35
2019-04-16T22:49:00.376Z,97828.78
2019-04-16T22:52:06.988Z,97834.91
2019-04-16T22:55:13.559Z,97832.49
2019-04-16T22:58:23.957Z,97830.43
2019-04-16T23:01:32.576Z,97835.52
2019-04-16T23:04:39.071Z,97828.52
2019-04-16T23:07:45.461Z,97821.45
2019-04-16T23:10:52.200Z,97823.05
2019-04-16T23:14:02.480Z,97825.58
2019-04-16T23:17:14.215Z,97823.50
2019-04-16T23:20:29.139Z,97824.44
2019-04-16T23:23:27.570Z,97826.92
2019-04-16T23:26:33.966Z,97830.92
2019-04-16T23:29:40.308Z,97834.87
2019-04-16T23:32:46.771Z,97841.55
2019-04-16T23:35:53.183Z,97840.38
2019-04-16T23:39:03.338Z,97837.33
2019-04-16T23:42:10.032Z,97831.16
2019-04-16T23:45:34.097Z,97832.51
2019-04-16T23:48:48.026Z,97838.75
2019-04-16T23:52:04.401Z,97832.56
2019-04-16T23:55:27.489Z,97836.73
2019-04-16T23:59:02.572Z,97832.59
